Time;durP1;ratioP1;P1;durP2;ratioP2;P2;SDS_P1;SDS_P2;PMS_P1;PMS_P2;Temp;Humidity;BMP_temperature;BMP_pressure;BME280_temperature;BME280_humidity;BME280_pressure;Samples;Min_cycle;Max_cycle;Signal;HPM_P1;HPM_P2
2022/05/03 00:03:20;;;;;;;7.80;3.63;;;9.50;1.00;;;;;;10511920;28;20195;-78
2022/05/03 00:09:06;;;;;;;7.17;4.10;;;9.40;88.70;;;;;;10523736;28;20233;-78
2022/05/03 00:14:54;;;;;;;7.53;3.83;;;9.40;99.90;;;;;;10497676;28;20277;-78
2022/05/03 00:20:16;;;;;;;7.97;4.00;;;9.20;1.00;;;;;;10468140;28;20202;-78
2022/05/03 00:25:38;;;;;;;6.63;3.73;;;9.10;99.90;;;;;;10483076;28;20481;-80
2022/05/03 00:31:01;;;;;;;8.03;4.40;;;9.00;1.00;;;;;;10481509;28;20281;-79
2022/05/03 00:36:23;;;;;;;7.63;4.80;;;8.90;99.90;;;;;;10482924;28;20195;-77
2022/05/03 00:41:55;;;;;;;6.40;4.17;;;8.80;1.00;;;;;;10495728;28;20191;-78
2022/05/03 00:47:20;;;;;;;9.63;4.73;;;8.70;1.00;;;;;;10482130;28;20195;-78
2022/05/03 00:52:57;;;;;;;6.63;4.53;;;8.60;1.00;;;;;;10481312;28;20539;-78
2022/05/03 00:58:43;;;;;;;9.03;4.43;;;8.50;1.00;;;;;;10480834;28;20269;-78
2022/05/03 01:04:37;;;;;;;6.50;4.87;;;8.50;1.00;;;;;;10516265;28;20269;-78
2022/05/03 01:10:24;;;;;;;7.97;4.83;;;8.50;99.90;;;;;;10460216;28;20234;-78
2022/05/03 01:15:52;;;;;;;10.10;4.70;;;8.40;99.90;;;;;;10436216;28;20203;-77
2022/05/03 01:21:32;;;;;;;7.13;4.40;;;8.40;1.00;;;;;;10436120;28;20212;-78
2022/05/03 01:27:18;;;;;;;8.37;4.23;;;8.30;1.00;;;;;;10435703;28;20222;-80
2022/05/03 01:32:46;;;;;;;6.43;4.63;;;8.30;99.90;;;;;;10418666;28;20215;-78
2022/05/03 01:38:45;;;;;;;5.17;4.13;;;8.30;99.90;;;;;;10435346;28;20521;-79
2022/05/03 01:44:47;;;;;;;7.80;4.10;;;8.40;99.90;;;;;;10448048;28;20210;-78
2022/05/03 01:50:18;;;;;;;7.40;3.73;;;8.40;99.90;;;;;;10480096;28;20220;-78
2022/05/03 01:56:16;;;;;;;7.37;4.40;;;8.40;99.90;;;;;;10478733;28;20202;-78
2022/05/03 02:01:41;;;;;;;5.77;3.70;;;8.30;99.90;;;;;;10493862;28;20816;-78
2022/05/03 02:07:11;;;;;;;5.20;3.87;;;8.30;1.00;;;;;;10505436;28;20202;-78
2022/05/03 02:12:34;;;;;;;8.17;4.33;;;8.30;1.00;;;;;;10503197;28;20236;-77
2022/05/03 02:18:05;;;;;;;6.10;3.50;;;8.30;1.00;;;;;;10478932;28;20412;-77
2022/05/03 02:23:45;;;;;;;7.10;3.87;;;8.10;99.90;;;;;;10477450;28;20259;-78
2022/05/03 02:29:17;;;;;;;5.97;3.67;;;8.10;99.90;;;;;;10479852;28;20225;-78
2022/05/03 02:34:40;;;;;;;8.87;4.53;;;8.00;1.00;;;;;;10463369;28;20269;-78
2022/05/03 02:40:11;;;;;;;8.13;4.30;;;8.00;1.00;;;;;;10477300;28;20242;-78
2022/05/03 02:45:36;;;;;;;5.23;4.47;;;7.90;1.00;;;;;;10462878;28;20199;-79
2022/05/03 02:51:04;;;;;;;6.53;4.40;;;7.80;1.00;;;;;;10478216;28;20227;-77
2022/05/03 02:56:36;;;;;;;5.07;4.10;;;7.90;1.00;;;;;;10478046;28;20261;-79
2022/05/03 03:02:31;;;;;;;7.20;3.93;;;7.80;1.00;;;;;;10494442;28;20286;-78
2022/05/03 03:07:57;;;;;;;8.17;4.20;;;7.80;1.00;;;;;;10518150;28;20501;-77
2022/05/03 03:13:34;;;;;;;8.50;5.97;;;7.80;1.00;;;;;;10499001;28;20206;-78
2022/05/03 03:18:58;;;;;;;9.77;4.97;;;7.70;51.50;;;;;;10477862;28;20207;-79
2022/05/03 03:24:21;;;;;;;5.90;4.50;;;7.70;99.90;;;;;;10476146;28;20235;-77
2022/05/03 03:29:44;;;;;;;7.33;4.30;;;7.70;99.90;;;;;;10476338;28;20294;-78
2022/05/03 03:35:05;;;;;;;7.57;4.70;;;7.80;99.90;;;;;;10470109;28;20490;-78
2022/05/03 03:40:29;;;;;;;14.83;4.30;;;7.80;99.90;;;;;;10485200;28;20552;-78
2022/05/03 03:45:50;;;;;;;7.63;4.10;;;7.80;99.90;;;;;;10484148;28;20272;-77
2022/05/03 03:51:14;;;;;;;6.80;3.90;;;7.70;99.90;;;;;;10484732;28;20440;-78
2022/05/03 03:56:35;;;;;;;5.23;3.80;;;7.80;99.90;;;;;;10484220;28;20232;-79
2022/05/03 04:02:03;;;;;;;6.20;4.10;;;7.90;99.90;;;;;;10500440;28;20209;-77
2022/05/03 04:07:24;;;;;;;8.37;4.57;;;7.90;99.90;;;;;;10525512;28;20236;-77
2022/05/03 04:12:46;;;;;;;6.77;4.30;;;8.00;99.90;;;;;;10506197;28;20230;-79
2022/05/03 04:18:08;;;;;;;5.97;3.87;;;7.90;99.90;;;;;;10483602;28;20229;-79
2022/05/03 04:23:30;;;;;;;4.23;3.73;;;7.90;99.90;;;;;;10481868;28;20206;-77
2022/05/03 04:28:58;;;;;;;6.47;4.03;;;8.10;99.90;;;;;;10481855;28;20237;-77
2022/05/03 04:34:19;;;;;;;5.43;4.07;;;8.10;99.90;;;;;;10496132;28;20262;-78
2022/05/03 04:39:41;;;;;;;5.93;3.60;;;8.20;99.90;;;;;;10482678;28;20195;-78
2022/05/03 04:45:02;;;;;;;4.63;3.80;;;8.30;99.90;;;;;;10466811;28;20409;-77
2022/05/03 04:50:24;;;;;;;8.00;3.37;;;8.30;99.90;;;;;;10482598;28;20226;-78
2022/05/03 04:55:45;;;;;;;4.10;3.63;;;8.40;99.90;;;;;;10482069;28;20195;-77
2022/05/03 05:01:07;;;;;;;6.37;4.17;;;8.60;99.90;;;;;;10477070;28;20251;-79
2022/05/03 05:06:28;;;;;;;5.23;3.40;;;8.70;99.90;;;;;;10522051;28;20242;-77
2022/05/03 05:11:49;;;;;;;5.40;3.57;;;8.70;99.90;;;;;;10511652;28;20301;-78
2022/05/03 05:17:11;;;;;;;5.43;3.33;;;8.80;99.90;;;;;;10466319;28;20396;-78
2022/05/03 05:22:32;;;;;;;6.00;2.70;;;9.00;99.90;;;;;;10479723;28;20513;-77
2022/05/03 05:27:53;;;;;;;3.93;3.13;;;9.20;99.90;;;;;;10480965;28;20235;-79
2022/05/03 05:33:15;;;;;;;5.77;3.30;;;9.40;99.90;;;;;;10480516;28;20194;-77
2022/05/03 05:38:36;;;;;;;6.00;3.73;;;9.50;99.90;;;;;;10465086;28;20532;-79
2022/05/03 05:43:57;;;;;;;7.57;3.33;;;9.80;83.90;;;;;;10479948;28;20194;-80
2022/05/03 05:49:19;;;;;;;6.60;3.73;;;10.10;4.20;;;;;;10478961;28;20220;-81
2022/05/03 05:54:40;;;;;;;6.30;3.10;;;10.50;1.00;;;;;;10491884;28;20419;-78
2022/05/03 06:00:01;;;;;;;6.93;3.90;;;10.90;1.00;;;;;;10480865;28;20482;-78
2022/05/03 06:05:31;;;;;;;3.65;2.88;;;11.10;99.90;;;;;;10520790;28;20440;-79
2022/05/03 06:10:56;;;;;;;4.90;2.95;;;11.60;99.90;;;;;;10516521;28;20251;-78
2022/05/03 06:16:17;;;;;;;4.30;2.95;;;12.30;99.90;;;;;;10478871;28;20200;-79
2022/05/03 06:21:38;;;;;;;3.35;2.78;;;12.80;1.00;;;;;;10478610;28;20205;-78
2022/05/03 06:26:59;;;;;;;5.15;3.67;;;13.20;99.90;;;;;;10478625;28;20230;-79
2022/05/03 06:32:21;;;;;;;8.10;3.63;;;13.30;99.90;;;;;;10463601;28;20548;-78
2022/05/03 06:37:42;;;;;;;5.65;3.78;;;13.40;95.10;;;;;;10477367;28;20190;-80
2022/05/03 06:43:04;;;;;;;12.07;4.43;;;13.40;1.00;;;;;;10477176;28;20196;-79
2022/05/03 06:48:25;;;;;;;9.38;5.55;;;13.30;99.90;;;;;;10477894;28;20194;-79
2022/05/03 06:53:47;;;;;;;4.43;4.03;;;13.20;1.00;;;;;;10477318;28;20220;-78
2022/05/03 06:59:09;;;;;;;5.53;4.47;;;13.10;99.90;;;;;;10479496;28;20281;-79
2022/05/03 07:04:30;;;;;;;9.88;4.75;;;13.10;1.00;;;;;;10516286;28;20230;-79
2022/05/03 07:09:52;;;;;;;6.88;4.70;;;13.10;1.00;;;;;;10520520;28;20300;-79
2022/05/03 07:15:13;;;;;;;7.05;5.15;;;13.00;1.00;;;;;;10485600;28;20209;-79
2022/05/03 07:26:13;;;;;;;10.43;5.82;;;12.90;99.90;;;;;;10484187;28;20412;-79
2022/05/03 07:31:35;;;;;;;7.43;4.82;;;13.00;1.00;;;;;;10498097;28;20434;-80
2022/05/03 07:36:56;;;;;;;6.85;4.60;;;13.50;99.90;;;;;;10484419;28;20428;-78
2022/05/03 07:42:17;;;;;;;10.68;6.00;;;14.20;99.90;;;;;;10484998;28;20195;-78
2022/05/03 07:47:39;;;;;;;7.03;4.22;;;14.60;99.90;;;;;;10484656;28;20193;-78
2022/05/03 07:53:00;;;;;;;9.73;4.82;;;14.90;99.90;;;;;;10483301;28;20454;-79
2022/05/03 07:58:22;;;;;;;7.18;4.82;;;15.10;1.00;;;;;;10483581;28;20304;-79
2022/05/03 08:03:43;;;;;;;8.85;5.07;;;15.20;99.90;;;;;;10514999;28;20497;-79
2022/05/03 08:09:04;;;;;;;6.05;4.60;;;15.10;1.00;;;;;;10520904;28;20218;-79
2022/05/03 08:14:27;;;;;;;8.93;6.43;;;15.00;1.00;;;;;;10497738;28;20490;-78
2022/05/03 08:19:51;;;;;;;10.07;5.78;;;15.00;1.00;;;;;;10495060;28;20432;-78
2022/05/03 08:25:12;;;;;;;7.00;5.50;;;15.10;1.00;;;;;;10481951;28;20547;-78
2022/05/03 08:30:35;;;;;;;11.50;6.50;;;15.40;99.90;;;;;;10482048;28;20222;-76
2022/05/03 08:35:56;;;;;;;7.28;5.28;;;15.70;1.00;;;;;;10482926;28;20195;-79
2022/05/03 08:46:58;;;;;;;5.97;4.30;;;16.60;1.00;;;;;;10482704;28;20236;-79
2022/05/03 08:57:07;;;;;;;6.97;4.55;;;15.90;1.00;;;;;;10514680;28;20546;-78
2022/05/03 09:02:28;;;;;;;5.82;4.18;;;15.90;1.00;;;;;;10513173;28;20210;-77
2022/05/03 09:07:52;;;;;;;8.68;4.55;;;16.00;99.90;;;;;;10498677;28;20205;-77
2022/05/03 09:13:23;;;;;;;9.25;4.53;;;15.70;99.90;;;;;;10493821;28;20410;-77
2022/05/03 09:18:46;;;;;;;7.80;5.07;;;15.40;99.90;;;;;;10470954;28;20419;-78
2022/05/03 09:24:08;;;;;;;5.05;3.60;;;14.90;1.00;;;;;;10470888;28;20199;-77
2022/05/03 09:29:29;;;;;;;7.32;4.50;;;14.70;1.00;;;;;;10470540;28;20197;-78
2022/05/03 09:34:51;;;;;;;9.48;5.97;;;14.40;99.90;;;;;;10470441;28;20454;-79
2022/05/03 09:40:16;;;;;;;12.43;8.27;;;13.90;1.00;;;;;;10471566;28;20489;-78
2022/05/03 09:45:38;;;;;;;9.82;6.75;;;13.70;1.00;;;;;;10471121;28;20206;-77
2022/05/03 09:51:00;;;;;;;8.15;6.05;;;14.00;1.00;;;;;;10469714;28;20205;-79
2022/05/03 09:56:25;;;;;;;8.07;5.28;;;14.20;1.00;;;;;;10479223;28;20264;-78
2022/05/03 10:01:47;;;;;;;10.95;5.80;;;14.50;1.00;;;;;;10469707;28;20190;-78
2022/05/03 10:07:08;;;;;;;10.43;6.05;;;14.20;1.00;;;;;;10450236;28;20408;-78
2022/05/03 10:12:30;;;;;;;8.82;4.80;;;13.80;1.00;;;;;;10506772;28;20212;-78
2022/05/03 10:23:35;;;;;;;8.05;6.13;;;13.70;1.00;;;;;;10525183;28;20236;-78
2022/05/03 10:29:07;;;;;;;7.93;5.72;;;13.30;1.00;;;;;;10524693;28;20194;-79
2022/05/03 10:34:41;;;;;;;6.72;4.85;;;13.00;1.00;;;;;;10523461;28;20230;-78
2022/05/03 10:40:13;;;;;;;7.15;4.13;;;12.90;1.00;;;;;;10524164;28;20189;-78
2022/05/03 10:45:49;;;;;;;5.53;4.22;;;12.90;1.00;;;;;;10524101;28;20216;-77
2022/05/03 10:51:13;;;;;;;6.65;4.25;;;12.90;1.00;;;;;;10522529;28;20209;-77
2022/05/03 10:56:34;;;;;;;5.55;4.28;;;13.10;1.00;;;;;;10465964;28;20260;-77
2022/05/03 11:01:55;;;;;;;4.30;3.03;;;13.20;1.00;;;;;;10425670;28;20338;-77
2022/05/03 11:07:25;;;;;;;9.85;5.43;;;13.40;1.00;;;;;;10440486;28;20241;-77
2022/05/03 11:12:49;;;;;;;9.60;5.38;;;13.50;1.00;;;;;;10496208;28;20219;-77
2022/05/03 11:18:11;;;;;;;6.38;4.53;;;13.80;1.00;;;;;;10521719;28;20509;-77
2022/05/03 11:23:32;;;;;;;7.10;4.90;;;14.80;1.00;;;;;;10521286;28;20238;-78
2022/05/03 11:28:56;;;;;;;7.15;4.78;;;16.00;1.00;;;;;;10522368;28;20456;-80
2022/05/03 11:34:18;;;;;;;6.45;5.13;;;16.00;1.00;;;;;;10522793;28;20218;-80
2022/05/03 11:39:40;;;;;;;5.85;4.80;;;15.50;1.00;;;;;;10520880;28;20195;-81
2022/05/03 11:45:01;;;;;;;6.68;5.70;;;15.30;1.00;;;;;;10507049;28;20280;-80
2022/05/03 12:00:49;;;;;;;8.13;4.78;;;16.30;99.90;;;;;;10514158;28;20363;-80
2022/05/03 12:06:11;;;;;;;14.77;9.25;;;16.00;1.00;;;;;;10498640;28;20228;-80
2022/05/03 12:12:42;;;;;;;5.97;4.60;;;15.20;99.90;;;;;;10509801;28;20258;-77
2022/05/03 12:17:14;;;;;;;10.52;5.78;;;14.70;99.90;;;;;;10554959;28;20189;-77
2022/05/03 12:22:35;;;;;;;6.00;4.45;;;14.70;99.90;;;;;;10553945;28;20213;-80
2022/05/03 12:28:02;;;;;;;9.18;5.70;;;14.70;1.00;;;;;;10539962;28;20375;-79
2022/05/03 12:33:30;;;;;;;9.15;6.07;;;14.40;1.00;;;;;;10539541;28;20234;-79
2022/05/03 12:38:51;;;;;;;9.13;5.95;;;14.10;1.00;;;;;;10554340;28;20196;-78
2022/05/03 12:44:15;;;;;;;7.07;5.00;;;14.20;1.00;;;;;;10554379;28;20207;-80
2022/05/03 12:49:39;;;;;;;6.18;4.88;;;14.30;1.00;;;;;;10552889;28;20484;-80
2022/05/03 12:55:01;;;;;;;8.90;6.40;;;14.30;1.00;;;;;;10523041;28;20556;-79
2022/05/03 13:00:22;;;;;;;8.27;6.35;;;14.40;1.00;;;;;;10510255;28;20243;-78
2022/05/03 13:05:44;;;;;;;7.65;5.90;;;14.70;1.00;;;;;;10487090;28;20197;-78
2022/05/03 13:11:05;;;;;;;11.50;7.75;;;15.30;99.90;;;;;;10490409;28;20275;-79
2022/05/03 13:16:27;;;;;;;10.50;7.47;;;15.50;99.90;;;;;;10524400;28;20191;-77
2022/05/03 13:21:48;;;;;;;12.05;9.50;;;15.10;99.90;;;;;;10524039;28;20204;-78
2022/05/03 13:27:10;;;;;;;11.27;9.55;;;15.10;99.90;;;;;;10509499;28;20201;-80
2022/05/03 13:32:32;;;;;;;10.50;7.55;;;15.50;99.90;;;;;;10523424;28;20237;-78
2022/05/03 13:43:33;;;;;;;7.85;5.80;;;15.60;1.00;;;;;;10524174;28;20213;-80
2022/05/03 13:48:55;;;;;;;7.13;5.72;;;15.80;99.90;;;;;;10523910;28;20194;-79
2022/05/03 13:54:19;;;;;;;6.47;5.50;;;15.50;1.00;;;;;;10485415;28;20247;-80
2022/05/03 13:59:40;;;;;;;7.10;5.65;;;15.40;1.00;;;;;;10482106;28;20376;-79
2022/05/03 14:05:02;;;;;;;8.13;5.57;;;15.30;1.00;;;;;;10466535;28;20202;-79
2022/05/03 14:10:23;;;;;;;8.32;7.32;;;15.30;1.00;;;;;;10496181;28;20269;-77
2022/05/03 14:15:44;;;;;;;7.03;5.45;;;15.40;1.00;;;;;;10521858;28;20190;-79
2022/05/03 14:21:05;;;;;;;7.30;5.00;;;15.40;1.00;;;;;;10522659;28;20204;-77
2022/05/03 14:26:27;;;;;;;8.25;5.88;;;15.50;1.00;;;;;;10522136;28;20189;-77
2022/05/03 14:31:50;;;;;;;8.93;5.13;;;15.40;99.90;;;;;;10521774;28;20250;-78
2022/05/03 14:37:11;;;;;;;6.30;4.63;;;15.20;99.90;;;;;;10521599;28;20199;-78
2022/05/03 14:42:32;;;;;;;3.47;3.17;;;15.30;1.00;;;;;;10520710;28;20201;-79
2022/05/03 14:47:53;;;;;;;6.13;3.17;;;15.20;99.90;;;;;;10521264;28;20188;-78
2022/05/03 14:53:15;;;;;;;6.22;4.13;;;15.30;99.90;;;;;;10520123;28;20523;-78
2022/05/03 15:04:16;;;;;;;6.38;4.38;;;15.00;99.90;;;;;;10479088;28;20271;-78
2022/05/03 15:09:37;;;;;;;5.72;4.07;;;14.80;99.90;;;;;;10478065;28;20192;-78
2022/05/03 15:14:58;;;;;;;7.88;6.13;;;14.80;1.00;;;;;;10517897;28;20270;-78
2022/05/03 15:20:23;;;;;;;8.95;5.88;;;14.70;99.90;;;;;;10520431;28;20195;-78
2022/05/03 15:25:45;;;;;;;8.40;6.45;;;14.60;99.90;;;;;;10533579;28;20198;-78
2022/05/03 15:31:07;;;;;;;6.18;4.70;;;14.60;10.50;;;;;;10518808;28;20230;-78
2022/05/03 15:36:29;;;;;;;4.30;3.72;;;14.60;99.90;;;;;;10520027;28;20209;-77
2022/05/03 15:41:50;;;;;;;9.30;6.47;;;14.60;99.90;;;;;;10518920;28;20469;-77
2022/05/03 15:47:11;;;;;;;7.90;4.68;;;14.50;99.90;;;;;;10519349;28;20205;-77
2022/05/03 15:52:34;;;;;;;6.82;5.68;;;14.50;1.00;;;;;;10510483;28;20589;-78
2022/05/03 15:57:55;;;;;;;12.07;7.43;;;14.50;99.90;;;;;;10476688;28;20202;-79
2022/05/03 16:03:16;;;;;;;11.32;7.13;;;14.30;4.20;;;;;;10477641;28;20442;-77
2022/05/03 16:08:38;;;;;;;13.02;7.65;;;14.20;99.90;;;;;;10477846;28;20194;-78
2022/05/03 16:14:00;;;;;;;6.97;5.45;;;14.20;1.00;;;;;;10494010;28;20587;-79
2022/05/03 16:19:22;;;;;;;6.35;4.97;;;14.00;1.00;;;;;;10503820;28;20201;-78
2022/05/03 16:24:44;;;;;;;9.23;6.40;;;14.00;99.90;;;;;;10519028;28;20250;-77
2022/05/03 16:30:06;;;;;;;13.63;8.63;;;13.90;1.00;;;;;;10517451;28;20208;-77
2022/05/03 16:35:28;;;;;;;9.32;6.65;;;13.70;99.90;;;;;;10517631;28;20228;-77
2022/05/03 16:46:29;;;;;;;16.08;10.73;;;13.50;99.90;;;;;;10526206;28;20190;-78
2022/05/03 16:51:50;;;;;;;17.17;10.35;;;13.30;99.90;;;;;;10522229;28;20306;-78
2022/05/03 16:57:13;;;;;;;22.08;10.77;;;13.20;1.00;;;;;;10485663;28;20285;-78
2022/05/03 17:02:34;;;;;;;15.90;9.50;;;13.10;1.00;;;;;;10497308;28;20197;-77
2022/05/03 17:07:55;;;;;;;13.90;9.98;;;13.00;1.00;;;;;;10482968;28;20272;-77
2022/05/03 17:13:18;;;;;;;12.98;8.18;;;13.00;1.00;;;;;;10507041;28;20247;-78
2022/05/03 17:18:39;;;;;;;12.07;8.45;;;12.90;1.00;;;;;;10524338;28;20198;-78
2022/05/03 17:24:03;;;;;;;14.63;8.88;;;12.90;1.00;;;;;;10523794;28;20281;-78
2022/05/03 17:29:24;;;;;;;18.33;11.50;;;12.90;1.00;;;;;;10524611;28;20225;-77
2022/05/03 17:34:45;;;;;;;17.50;11.10;;;12.80;1.00;;;;;;10524340;28;20220;-78
2022/05/03 17:40:07;;;;;;;14.55;10.27;;;12.80;1.00;;;;;;10524513;28;20189;-78
2022/05/03 17:45:29;;;;;;;13.45;8.20;;;12.80;1.00;;;;;;10523021;28;20210;-77
2022/05/03 17:50:51;;;;;;;13.10;8.98;;;12.70;1.00;;;;;;10508608;28;20251;-78
2022/05/03 17:56:13;;;;;;;15.43;8.98;;;12.80;1.00;;;;;;10469616;28;20273;-78
2022/05/03 18:01:34;;;;;;;10.63;7.97;;;12.80;1.00;;;;;;10481077;28;20495;-79
2022/05/03 18:07:01;;;;;;;15.45;8.90;;;12.70;1.00;;;;;;10466691;28;20209;-78
2022/05/03 18:12:22;;;;;;;14.65;7.70;;;12.50;1.00;;;;;;10499676;28;20229;-78
2022/05/03 18:17:43;;;;;;;15.10;8.25;;;12.40;1.00;;;;;;10522928;28;20373;-80
2022/05/03 18:23:06;;;;;;;11.07;7.25;;;12.30;1.00;;;;;;10521574;28;20196;-80
2022/05/03 18:28:27;;;;;;;17.88;11.70;;;12.10;1.00;;;;;;10522236;28;20214;-78
2022/05/03 18:33:48;;;;;;;24.75;14.18;;;12.20;1.00;;;;;;10522188;28;20222;-78
2022/05/03 18:39:10;;;;;;;21.90;10.07;;;12.10;1.00;;;;;;10521637;28;20198;-78
2022/05/03 18:44:31;;;;;;;13.65;7.90;;;11.90;1.00;;;;;;10521074;28;20267;-79
2022/05/03 18:49:53;;;;;;;11.23;6.85;;;11.70;1.00;;;;;;10520312;28;20518;-78
2022/05/03 19:00:58;;;;;;;9.73;7.25;;;11.20;1.00;;;;;;10479324;28;20213;-77
2022/05/03 19:06:19;;;;;;;16.00;8.13;;;11.00;1.00;;;;;;10479608;28;20366;-78
2022/05/03 19:11:41;;;;;;;11.43;7.17;;;11.00;1.00;;;;;;10504554;28;20528;-78
2022/05/03 19:17:02;;;;;;;8.03;6.53;;;10.70;1.00;;;;;;10505232;28;20267;-78
2022/05/03 19:22:23;;;;;;;12.23;6.47;;;10.50;1.00;;;;;;10520291;28;20292;-78
2022/05/03 19:33:27;;;;;;;9.63;5.15;;;10.20;1.00;;;;;;10519986;28;20242;-77
2022/05/03 19:38:48;;;;;;;6.97;4.43;;;10.00;1.00;;;;;;10519789;28;20481;-77
2022/05/03 19:44:10;;;;;;;8.37;3.57;;;9.90;1.00;;;;;;10519787;28;20204;-77
2022/05/03 19:49:32;;;;;;;7.50;3.70;;;9.80;1.00;;;;;;10518508;28;20229;-78
2022/05/03 19:54:53;;;;;;;9.70;4.87;;;9.70;1.00;;;;;;10476097;28;20243;-78
2022/05/03 20:00:14;;;;;;;22.57;10.43;;;9.70;1.00;;;;;;10478012;28;20191;-78
2022/05/03 20:05:40;;;;;;;10.53;4.93;;;9.70;1.00;;;;;;10490960;28;20207;-78
2022/05/03 20:11:03;;;;;;;8.27;3.20;;;9.60;99.90;;;;;;10483573;28;20195;-78
2022/05/03 20:16:24;;;;;;;8.67;2.87;;;9.60;99.90;;;;;;10525388;28;20232;-79
2022/05/03 20:21:45;;;;;;;7.73;3.33;;;9.50;1.00;;;;;;10526192;28;20225;-77
2022/05/03 20:27:06;;;;;;;7.03;3.30;;;9.50;1.00;;;;;;10526059;28;20277;-79
2022/05/03 20:32:28;;;;;;;9.00;3.03;;;9.40;1.00;;;;;;10527298;28;20221;-78
2022/05/03 20:37:49;;;;;;;5.53;2.67;;;9.40;1.00;;;;;;10526606;28;20197;-79
2022/05/03 20:43:10;;;;;;;3.87;2.37;;;9.40;99.90;;;;;;10525641;28;20421;-78
2022/05/03 20:54:11;;;;;;;3.97;1.87;;;9.20;99.90;;;;;;10503721;28;20251;-79
2022/05/03 20:59:33;;;;;;;6.53;2.20;;;9.20;99.90;;;;;;10484552;28;20197;-79
2022/05/03 21:04:55;;;;;;;5.40;2.90;;;9.20;99.90;;;;;;10484276;28;20241;-78
2022/05/03 21:10:16;;;;;;;5.30;2.90;;;9.10;99.90;;;;;;10483914;28;20198;-77
2022/05/03 21:15:37;;;;;;;6.10;2.53;;;9.10;99.90;;;;;;10510298;28;20253;-78
2022/05/03 21:20:59;;;;;;;5.47;3.17;;;9.10;99.90;;;;;;10523936;28;20389;-78
2022/05/03 21:26:21;;;;;;;7.33;3.37;;;9.00;99.90;;;;;;10524695;28;20195;-79
2022/05/03 21:31:44;;;;;;;7.10;3.37;;;9.00;1.00;;;;;;10524741;28;22126;-77
2022/05/03 21:37:05;;;;;;;6.67;3.20;;;8.80;1.00;;;;;;10523205;28;20208;-78
2022/05/03 21:42:26;;;;;;;6.93;3.10;;;8.70;1.00;;;;;;10524292;28;20194;-79
2022/05/03 21:47:48;;;;;;;6.47;2.80;;;8.70;1.00;;;;;;10508807;28;20276;-80
2022/05/03 21:53:09;;;;;;;7.77;2.90;;;8.70;1.00;;;;;;10494716;28;20238;-77
2022/05/03 21:58:34;;;;;;;8.23;2.77;;;8.70;1.00;;;;;;10482305;28;20244;-77
2022/05/03 22:03:55;;;;;;;5.83;2.20;;;8.60;57.50;;;;;;10481872;28;20198;-78
2022/05/03 22:09:17;;;;;;;2.77;2.00;;;8.60;99.90;;;;;;10480792;28;20198;-78
2022/05/03 22:14:38;;;;;;;5.67;2.43;;;8.60;99.90;;;;;;10514386;28;20226;-79
2022/05/03 22:20:00;;;;;;;7.53;2.20;;;8.60;99.90;;;;;;10522670;28;20189;-77
2022/05/03 22:25:21;;;;;;;7.00;2.83;;;8.50;99.90;;;;;;10507629;28;20247;-79
2022/05/03 22:30:43;;;;;;;4.67;2.60;;;8.40;99.90;;;;;;10522445;28;20190;-80
2022/05/03 22:36:04;;;;;;;3.47;2.37;;;8.40;99.90;;;;;;10520130;28;20233;-79
2022/05/03 22:41:26;;;;;;;7.43;2.40;;;8.40;99.90;;;;;;10520943;28;20395;-81
2022/05/03 22:46:47;;;;;;;6.00;2.50;;;8.20;99.90;;;;;;10521682;28;20244;-79
2022/05/03 22:52:08;;;;;;;5.50;2.67;;;8.20;99.90;;;;;;10514782;28;20263;-80
2022/05/03 22:57:30;;;;;;;5.90;3.63;;;8.10;99.90;;;;;;10464611;28;20201;-80
2022/05/03 23:02:52;;;;;;;6.50;3.00;;;8.00;99.90;;;;;;10478362;28;20228;-79
2022/05/03 23:08:13;;;;;;;10.37;2.87;;;7.90;1.00;;;;;;10478886;28;20203;-79
2022/05/03 23:13:34;;;;;;;7.40;2.90;;;7.90;1.00;;;;;;10506139;28;20243;-80
2022/05/03 23:18:55;;;;;;;5.80;2.73;;;7.80;1.00;;;;;;10520969;28;20198;-79
2022/05/03 23:24:17;;;;;;;9.07;3.40;;;7.70;1.00;;;;;;10520397;28;20214;-81
2022/05/03 23:29:38;;;;;;;8.07;2.90;;;7.60;1.00;;;;;;10520131;28;20201;-78
2022/05/03 23:35:13;;;;;;;6.37;3.13;;;7.60;1.00;;;;;;10504897;28;20224;-79
2022/05/03 23:40:35;;;;;;;6.00;3.33;;;7.40;1.00;;;;;;10520209;28;20200;-79
2022/05/03 23:46:08;;;;;;;6.93;2.97;;;7.40;1.00;;;;;;10518571;28;20195;-78
2022/05/03 23:51:30;;;;;;;8.17;4.03;;;7.30;1.00;;;;;;10519674;28;20242;-78
2022/05/03 23:56:51;;;;;;;6.17;3.03;;;7.20;1.00;;;;;;10436274;28;20297;-79
